sensor_id;sensor_type;location;lat;lon;timestamp;temperature;humidity
27226;DHT22;14732;51.074;3.788;2022-09-09T00:04:41;16.30;99.90
27226;DHT22;14732;51.074;3.788;2022-09-09T00:07:36;16.30;99.90
27226;DHT22;14732;51.074;3.788;2022-09-09T00:10:28;16.50;99.90
27226;DHT22;14732;51.074;3.788;2022-09-09T00:13:18;16.60;99.90
27226;DHT22;14732;51.074;3.788;2022-09-09T00:16:09;16.60;99.90
27226;DHT22;14732;51.074;3.788;2022-09-09T00:21:36;16.50;99.90
27226;DHT22;14732;51.074;3.788;2022-09-09T00:24:11;16.20;99.90
27226;DHT22;14732;51.074;3.788;2022-09-09T00:26:46;16.10;99.90
27226;DHT22;14732;51.074;3.788;2022-09-09T00:29:26;15.80;99.90
27226;DHT22;14732;51.074;3.788;2022-09-09T00:31:57;15.90;99.90
27226;DHT22;14732;51.074;3.788;2022-09-09T00:34:26;16.00;99.90
27226;DHT22;14732;51.074;3.788;2022-09-09T00:36:53;16.00;99.90
27226;DHT22;14732;51.074;3.788;2022-09-09T00:39:42;16.00;99.90
27226;DHT22;14732;51.074;3.788;2022-09-09T00:53:05;16.00;99.90
27226;DHT22;14732;51.074;3.788;2022-09-09T00:56:12;16.00;99.90
27226;DHT22;14732;51.074;3.788;2022-09-09T00:58:39;16.00;99.90
27226;DHT22;14732;51.074;3.788;2022-09-09T01:01:10;16.00;99.90
27226;DHT22;14732;51.074;3.788;2022-09-09T01:03:52;15.90;99.90
27226;DHT22;14732;51.074;3.788;2022-09-09T01:12:16;15.90;99.90
27226;DHT22;14732;51.074;3.788;2022-09-09T01:14:47;15.80;99.90
27226;DHT22;14732;51.074;3.788;2022-09-09T01:17:32;15.70;99.90
27226;DHT22;14732;51.074;3.788;2022-09-09T01:28:31;15.60;99.90
27226;DHT22;14732;51.074;3.788;2022-09-09T01:31:00;15.50;99.90
27226;DHT22;14732;51.074;3.788;2022-09-09T01:33:27;15.50;99.90
27226;DHT22;14732;51.074;3.788;2022-09-09T01:35:57;15.60;99.90
27226;DHT22;14732;51.074;3.788;2022-09-09T01:38:26;15.60;99.90
27226;DHT22;14732;51.074;3.788;2022-09-09T01:40:53;15.60;99.90
27226;DHT22;14732;51.074;3.788;2022-09-09T01:43:23;15.50;99.90
27226;DHT22;14732;51.074;3.788;2022-09-09T01:45:52;15.30;99.90
27226;DHT22;14732;51.074;3.788;2022-09-09T01:48:19;15.30;99.90
27226;DHT22;14732;51.074;3.788;2022-09-09T01:50:46;15.40;99.90
27226;DHT22;14732;51.074;3.788;2022-09-09T01:53:13;15.40;99.90
27226;DHT22;14732;51.074;3.788;2022-09-09T01:55:41;15.50;99.90
27226;DHT22;14732;51.074;3.788;2022-09-09T01:58:17;15.50;99.90
27226;DHT22;14732;51.074;3.788;2022-09-09T02:03:56;15.40;99.90
27226;DHT22;14732;51.074;3.788;2022-09-09T02:06:30;15.50;99.90
27226;DHT22;14732;51.074;3.788;2022-09-09T02:09:01;15.30;99.90
27226;DHT22;14732;51.074;3.788;2022-09-09T02:11:29;15.30;99.90
27226;DHT22;14732;51.074;3.788;2022-09-09T02:14:16;15.30;99.90
27226;DHT22;14732;51.074;3.788;2022-09-09T02:17:10;15.30;99.90
27226;DHT22;14732;51.074;3.788;2022-09-09T02:19:39;15.30;99.90
27226;DHT22;14732;51.074;3.788;2022-09-09T02:22:07;15.40;99.90
27226;DHT22;14732;51.074;3.788;2022-09-09T02:24:37;15.50;99.90
27226;DHT22;14732;51.074;3.788;2022-09-09T02:27:06;15.50;99.90
27226;DHT22;14732;51.074;3.788;2022-09-09T02:29:39;15.70;99.90
27226;DHT22;14732;51.074;3.788;2022-09-09T02:32:12;15.80;99.90
27226;DHT22;14732;51.074;3.788;2022-09-09T02:34:45;16.00;99.90
27226;DHT22;14732;51.074;3.788;2022-09-09T02:37:15;16.10;99.90
27226;DHT22;14732;51.074;3.788;2022-09-09T02:39:43;16.20;99.90
27226;DHT22;14732;51.074;3.788;2022-09-09T02:42:08;16.30;99.90
27226;DHT22;14732;51.074;3.788;2022-09-09T02:44:35;16.30;99.90
27226;DHT22;14732;51.074;3.788;2022-09-09T02:52:07;16.40;99.90
27226;DHT22;14732;51.074;3.788;2022-09-09T02:54:35;16.30;99.90
27226;DHT22;14732;51.074;3.788;2022-09-09T02:57:14;16.40;99.90
27226;DHT22;14732;51.074;3.788;2022-09-09T02:59:43;16.50;99.90
27226;DHT22;14732;51.074;3.788;2022-09-09T03:02:09;16.40;99.90
27226;DHT22;14732;51.074;3.788;2022-09-09T03:04:37;16.30;99.90
27226;DHT22;14732;51.074;3.788;2022-09-09T03:07:03;16.40;99.90
27226;DHT22;14732;51.074;3.788;2022-09-09T03:09:29;16.30;99.90
27226;DHT22;14732;51.074;3.788;2022-09-09T03:11:55;16.30;99.90
27226;DHT22;14732;51.074;3.788;2022-09-09T03:14:22;16.40;99.90
27226;DHT22;14732;51.074;3.788;2022-09-09T03:16:50;16.50;99.90
27226;DHT22;14732;51.074;3.788;2022-09-09T03:19:16;16.60;99.90
27226;DHT22;14732;51.074;3.788;2022-09-09T03:21:44;16.60;99.90
27226;DHT22;14732;51.074;3.788;2022-09-09T03:24:10;16.60;99.90
27226;DHT22;14732;51.074;3.788;2022-09-09T03:26:35;16.50;99.90
27226;DHT22;14732;51.074;3.788;2022-09-09T03:29:03;16.60;99.90
27226;DHT22;14732;51.074;3.788;2022-09-09T03:31:32;16.50;99.90
27226;DHT22;14732;51.074;3.788;2022-09-09T03:33:58;16.40;99.90
27226;DHT22;14732;51.074;3.788;2022-09-09T03:36:25;16.50;99.90
27226;DHT22;14732;51.074;3.788;2022-09-09T03:38:51;16.50;99.90
27226;DHT22;14732;51.074;3.788;2022-09-09T03:41:17;16.40;99.90
27226;DHT22;14732;51.074;3.788;2022-09-09T03:43:43;16.40;99.90
27226;DHT22;14732;51.074;3.788;2022-09-09T03:46:10;16.50;99.90
27226;DHT22;14732;51.074;3.788;2022-09-09T03:48:35;16.50;99.90
27226;DHT22;14732;51.074;3.788;2022-09-09T03:51:01;16.50;99.90
27226;DHT22;14732;51.074;3.788;2022-09-09T03:53:28;16.60;99.90
27226;DHT22;14732;51.074;3.788;2022-09-09T03:55:56;16.50;99.90
27226;DHT22;14732;51.074;3.788;2022-09-09T03:58:25;16.60;99.90
27226;DHT22;14732;51.074;3.788;2022-09-09T04:01:28;16.60;99.90
27226;DHT22;14732;51.074;3.788;2022-09-09T04:03:53;16.70;99.90
27226;DHT22;14732;51.074;3.788;2022-09-09T04:06:23;16.70;99.90
27226;DHT22;14732;51.074;3.788;2022-09-09T04:08:49;16.70;99.90
27226;DHT22;14732;51.074;3.788;2022-09-09T04:11:15;16.80;99.90
27226;DHT22;14732;51.074;3.788;2022-09-09T04:13:41;16.80;99.90
27226;DHT22;14732;51.074;3.788;2022-09-09T04:16:09;16.80;99.90
27226;DHT22;14732;51.074;3.788;2022-09-09T04:18:35;16.70;99.90
27226;DHT22;14732;51.074;3.788;2022-09-09T04:21:02;16.80;99.90
27226;DHT22;14732;51.074;3.788;2022-09-09T04:23:29;16.80;99.90
27226;DHT22;14732;51.074;3.788;2022-09-09T04:25:56;16.60;99.90
27226;DHT22;14732;51.074;3.788;2022-09-09T04:28:24;16.60;99.90
27226;DHT22;14732;51.074;3.788;2022-09-09T04:30:50;16.60;99.90
27226;DHT22;14732;51.074;3.788;2022-09-09T04:33:16;16.60;99.90
27226;DHT22;14732;51.074;3.788;2022-09-09T04:35:47;16.70;99.90
27226;DHT22;14732;51.074;3.788;2022-09-09T04:38:14;16.70;99.90
27226;DHT22;14732;51.074;3.788;2022-09-09T04:40:43;16.60;99.90
27226;DHT22;14732;51.074;3.788;2022-09-09T04:43:09;16.60;99.90
27226;DHT22;14732;51.074;3.788;2022-09-09T04:45:35;16.60;99.90
27226;DHT22;14732;51.074;3.788;2022-09-09T04:48:01;16.70;99.90
27226;DHT22;14732;51.074;3.788;2022-09-09T04:50:28;16.70;99.90
27226;DHT22;14732;51.074;3.788;2022-09-09T04:52:53;16.70;99.90
27226;DHT22;14732;51.074;3.788;2022-09-09T04:55:19;16.80;99.90
27226;DHT22;14732;51.074;3.788;2022-09-09T04:57:45;16.80;99.90
27226;DHT22;14732;51.074;3.788;2022-09-09T05:00:11;16.70;99.90
27226;DHT22;14732;51.074;3.788;2022-09-09T05:02:39;16.70;99.90
27226;DHT22;14732;51.074;3.788;2022-09-09T05:05:05;16.60;99.90
27226;DHT22;14732;51.074;3.788;2022-09-09T05:07:31;16.60;99.90
27226;DHT22;14732;51.074;3.788;2022-09-09T05:09:57;16.70;99.90
27226;DHT22;14732;51.074;3.788;2022-09-09T05:12:23;16.70;99.90
27226;DHT22;14732;51.074;3.788;2022-09-09T05:14:53;16.70;99.90
27226;DHT22;14732;51.074;3.788;2022-09-09T05:17:19;16.70;99.90
27226;DHT22;14732;51.074;3.788;2022-09-09T05:19:45;16.70;99.90
27226;DHT22;14732;51.074;3.788;2022-09-09T05:22:10;16.60;99.90
27226;DHT22;14732;51.074;3.788;2022-09-09T05:24:37;16.60;99.90
27226;DHT22;14732;51.074;3.788;2022-09-09T05:27:04;16.60;99.90
27226;DHT22;14732;51.074;3.788;2022-09-09T05:29:32;16.80;99.90
27226;DHT22;14732;51.074;3.788;2022-09-09T05:31:59;16.80;99.90
27226;DHT22;14732;51.074;3.788;2022-09-09T05:34:24;16.80;99.90
27226;DHT22;14732;51.074;3.788;2022-09-09T05:36:50;16.80;99.90
27226;DHT22;14732;51.074;3.788;2022-09-09T05:39:17;16.80;99.90
27226;DHT22;14732;51.074;3.788;2022-09-09T05:41:43;16.80;99.90
27226;DHT22;14732;51.074;3.788;2022-09-09T05:44:08;16.80;99.90
27226;DHT22;14732;51.074;3.788;2022-09-09T05:46:34;16.80;99.90
27226;DHT22;14732;51.074;3.788;2022-09-09T05:49:00;16.90;99.90
27226;DHT22;14732;51.074;3.788;2022-09-09T05:51:28;16.80;99.90
27226;DHT22;14732;51.074;3.788;2022-09-09T05:53:55;16.80;99.90
27226;DHT22;14732;51.074;3.788;2022-09-09T05:56:26;16.90;99.90
27226;DHT22;14732;51.074;3.788;2022-09-09T05:58:52;16.90;99.90
27226;DHT22;14732;51.074;3.788;2022-09-09T06:01:27;17.00;99.90
27226;DHT22;14732;51.074;3.788;2022-09-09T06:03:53;17.00;99.90
27226;DHT22;14732;51.074;3.788;2022-09-09T06:06:21;17.10;99.90
27226;DHT22;14732;51.074;3.788;2022-09-09T06:08:47;17.10;99.90
27226;DHT22;14732;51.074;3.788;2022-09-09T06:11:25;17.10;99.90
27226;DHT22;14732;51.074;3.788;2022-09-09T06:13:51;17.20;99.90
27226;DHT22;14732;51.074;3.788;2022-09-09T06:16:21;17.30;99.90
27226;DHT22;14732;51.074;3.788;2022-09-09T06:18:48;17.30;99.90
27226;DHT22;14732;51.074;3.788;2022-09-09T06:21:23;17.30;99.90
27226;DHT22;14732;51.074;3.788;2022-09-09T06:23:49;17.30;99.90
27226;DHT22;14732;51.074;3.788;2022-09-09T06:28:47;17.20;99.90
27226;DHT22;14732;51.074;3.788;2022-09-09T06:31:15;17.10;99.90
27226;DHT22;14732;51.074;3.788;2022-09-09T06:33:49;17.00;99.90
27226;DHT22;14732;51.074;3.788;2022-09-09T06:36:17;16.90;99.90
27226;DHT22;14732;51.074;3.788;2022-09-09T06:38:44;17.00;99.90
27226;DHT22;14732;51.074;3.788;2022-09-09T06:41:11;16.80;99.90
27226;DHT22;14732;51.074;3.788;2022-09-09T06:43:37;17.00;99.90
27226;DHT22;14732;51.074;3.788;2022-09-09T06:46:05;17.00;99.90
27226;DHT22;14732;51.074;3.788;2022-09-09T06:48:31;16.90;99.90
27226;DHT22;14732;51.074;3.788;2022-09-09T06:51:09;16.90;99.90
27226;DHT22;14732;51.074;3.788;2022-09-09T06:53:37;17.00;99.90
27226;DHT22;14732;51.074;3.788;2022-09-09T06:58:43;17.10;99.90
27226;DHT22;14732;51.074;3.788;2022-09-09T07:01:15;17.20;99.90
27226;DHT22;14732;51.074;3.788;2022-09-09T07:03:41;17.30;99.90
27226;DHT22;14732;51.074;3.788;2022-09-09T07:06:09;17.50;99.90
27226;DHT22;14732;51.074;3.788;2022-09-09T07:08:39;17.60;99.90
27226;DHT22;14732;51.074;3.788;2022-09-09T07:11:06;17.70;99.90
27226;DHT22;14732;51.074;3.788;2022-09-09T07:13:32;17.90;99.90
27226;DHT22;14732;51.074;3.788;2022-09-09T07:18:31;18.20;99.90
27226;DHT22;14732;51.074;3.788;2022-09-09T07:20:57;18.40;99.90
27226;DHT22;14732;51.074;3.788;2022-09-09T07:23:23;18.60;99.90
27226;DHT22;14732;51.074;3.788;2022-09-09T07:25:49;18.50;99.90
27226;DHT22;14732;51.074;3.788;2022-09-09T07:28:16;18.40;99.90
27226;DHT22;14732;51.074;3.788;2022-09-09T07:30:42;18.40;99.90
27226;DHT22;14732;51.074;3.788;2022-09-09T07:33:09;18.50;99.90
27226;DHT22;14732;51.074;3.788;2022-09-09T07:35:37;18.50;99.90
27226;DHT22;14732;51.074;3.788;2022-09-09T07:38:03;18.60;99.90
27226;DHT22;14732;51.074;3.788;2022-09-09T07:40:33;19.00;99.90
27226;DHT22;14732;51.074;3.788;2022-09-09T07:42:59;19.20;99.90
27226;DHT22;14732;51.074;3.788;2022-09-09T07:45:25;19.30;99.90
27226;DHT22;14732;51.074;3.788;2022-09-09T07:47:54;19.40;99.90
27226;DHT22;14732;51.074;3.788;2022-09-09T07:50:22;19.30;99.90
27226;DHT22;14732;51.074;3.788;2022-09-09T07:52:49;19.20;99.90
27226;DHT22;14732;51.074;3.788;2022-09-09T07:55:14;19.20;99.90
27226;DHT22;14732;51.074;3.788;2022-09-09T07:57:40;19.10;99.90
27226;DHT22;14732;51.074;3.788;2022-09-09T08:00:06;19.10;99.90
27226;DHT22;14732;51.074;3.788;2022-09-09T08:02:32;19.10;99.90
27226;DHT22;14732;51.074;3.788;2022-09-09T08:04:58;19.00;99.90
27226;DHT22;14732;51.074;3.788;2022-09-09T08:07:23;18.70;99.90
27226;DHT22;14732;51.074;3.788;2022-09-09T08:09:49;18.70;99.90
27226;DHT22;14732;51.074;3.788;2022-09-09T08:12:15;18.60;99.90
27226;DHT22;14732;51.074;3.788;2022-09-09T08:14:42;18.60;99.90
27226;DHT22;14732;51.074;3.788;2022-09-09T08:17:07;18.50;99.90
27226;DHT22;14732;51.074;3.788;2022-09-09T08:19:33;18.60;99.90
27226;DHT22;14732;51.074;3.788;2022-09-09T08:22:02;18.60;99.90
27226;DHT22;14732;51.074;3.788;2022-09-09T08:24:29;18.50;99.90
27226;DHT22;14732;51.074;3.788;2022-09-09T08:26:54;18.40;99.90
27226;DHT22;14732;51.074;3.788;2022-09-09T08:29:22;18.20;99.90
27226;DHT22;14732;51.074;3.788;2022-09-09T08:31:49;18.20;99.90
27226;DHT22;14732;51.074;3.788;2022-09-09T08:34:15;18.20;99.90
27226;DHT22;14732;51.074;3.788;2022-09-09T08:36:43;18.10;99.90
27226;DHT22;14732;51.074;3.788;2022-09-09T08:39:11;18.10;99.90
27226;DHT22;14732;51.074;3.788;2022-09-09T08:44:16;18.10;99.90
27226;DHT22;14732;51.074;3.788;2022-09-09T08:58:09;17.90;99.90
27226;DHT22;14732;51.074;3.788;2022-09-09T09:01:05;17.90;99.90
27226;DHT22;14732;51.074;3.788;2022-09-09T09:11:19;18.30;99.90
27226;DHT22;14732;51.074;3.788;2022-09-09T09:13:51;18.20;99.90
27226;DHT22;14732;51.074;3.788;2022-09-09T09:16:48;18.30;99.90
27226;DHT22;14732;51.074;3.788;2022-09-09T09:19:16;18.30;99.90
27226;DHT22;14732;51.074;3.788;2022-09-09T09:24:20;18.30;99.90
27226;DHT22;14732;51.074;3.788;2022-09-09T09:26:48;18.30;99.90
27226;DHT22;14732;51.074;3.788;2022-09-09T09:29:16;18.50;99.90
27226;DHT22;14732;51.074;3.788;2022-09-09T09:31:51;18.70;99.90
27226;DHT22;14732;51.074;3.788;2022-09-09T09:34:17;19.10;99.90
27226;DHT22;14732;51.074;3.788;2022-09-09T09:36:44;19.40;99.90
27226;DHT22;14732;51.074;3.788;2022-09-09T09:39:25;19.80;99.90
27226;DHT22;14732;51.074;3.788;2022-09-09T09:41:52;20.20;99.90
27226;DHT22;14732;51.074;3.788;2022-09-09T09:44:29;20.50;99.90
27226;DHT22;14732;51.074;3.788;2022-09-09T09:47:08;20.70;99.90
27226;DHT22;14732;51.074;3.788;2022-09-09T09:49:36;20.90;99.90
27226;DHT22;14732;51.074;3.788;2022-09-09T09:52:06;20.80;99.90
27226;DHT22;14732;51.074;3.788;2022-09-09T09:54:37;20.80;99.90
27226;DHT22;14732;51.074;3.788;2022-09-09T09:57:11;20.50;99.90
27226;DHT22;14732;51.074;3.788;2022-09-09T09:59:38;20.40;99.90
27226;DHT22;14732;51.074;3.788;2022-09-09T10:02:13;20.30;99.90
27226;DHT22;14732;51.074;3.788;2022-09-09T10:04:39;20.20;99.90
27226;DHT22;14732;51.074;3.788;2022-09-09T10:07:17;20.20;99.90
27226;DHT22;14732;51.074;3.788;2022-09-09T10:09:43;20.20;99.90
27226;DHT22;14732;51.074;3.788;2022-09-09T10:17:43;20.10;99.90
27226;DHT22;14732;51.074;3.788;2022-09-09T10:23:02;19.90;99.90
27226;DHT22;14732;51.074;3.788;2022-09-09T10:31:13;20.50;99.90
27226;DHT22;14732;51.074;3.788;2022-09-09T10:33:56;20.50;99.90
27226;DHT22;14732;51.074;3.788;2022-09-09T10:36:25;20.50;99.90
27226;DHT22;14732;51.074;3.788;2022-09-09T10:39:01;20.50;99.90
27226;DHT22;14732;51.074;3.788;2022-09-09T10:52:48;20.80;99.90
27226;DHT22;14732;51.074;3.788;2022-09-09T10:55:20;21.00;99.90
27226;DHT22;14732;51.074;3.788;2022-09-09T10:57:52;21.00;99.90
27226;DHT22;14732;51.074;3.788;2022-09-09T11:03:01;21.30;99.90
27226;DHT22;14732;51.074;3.788;2022-09-09T11:05:43;21.20;99.90
27226;DHT22;14732;51.074;3.788;2022-09-09T11:10:53;21.20;99.90
27226;DHT22;14732;51.074;3.788;2022-09-09T11:21:47;21.40;99.90
27226;DHT22;14732;51.074;3.788;2022-09-09T11:27:05;21.80;99.90
27226;DHT22;14732;51.074;3.788;2022-09-09T11:32:40;22.00;99.90
27226;DHT22;14732;51.074;3.788;2022-09-09T11:37:53;22.70;99.90
27226;DHT22;14732;51.074;3.788;2022-09-09T11:40:24;22.90;99.90
27226;DHT22;14732;51.074;3.788;2022-09-09T11:45:30;22.80;99.90
27226;DHT22;14732;51.074;3.788;2022-09-09T11:47:58;22.90;99.90
27226;DHT22;14732;51.074;3.788;2022-09-09T11:50:27;22.90;99.90
27226;DHT22;14732;51.074;3.788;2022-09-09T11:55:39;23.00;99.90
27226;DHT22;14732;51.074;3.788;2022-09-09T11:58:05;22.90;99.90
27226;DHT22;14732;51.074;3.788;2022-09-09T12:00:40;22.70;99.90
27226;DHT22;14732;51.074;3.788;2022-09-09T12:03:38;22.50;99.90
27226;DHT22;14732;51.074;3.788;2022-09-09T12:06:25;22.50;99.90
27226;DHT22;14732;51.074;3.788;2022-09-09T12:09:07;22.60;99.90
27226;DHT22;14732;51.074;3.788;2022-09-09T12:11:33;22.60;99.90
27226;DHT22;14732;51.074;3.788;2022-09-09T12:14:00;22.80;99.90
27226;DHT22;14732;51.074;3.788;2022-09-09T12:16:38;23.00;99.90
27226;DHT22;14732;51.074;3.788;2022-09-09T12:19:18;23.00;99.90
27226;DHT22;14732;51.074;3.788;2022-09-09T12:21:57;23.00;99.90
27226;DHT22;14732;51.074;3.788;2022-09-09T12:24:40;22.80;99.90
27226;DHT22;14732;51.074;3.788;2022-09-09T12:27:26;22.50;99.90
27226;DHT22;14732;51.074;3.788;2022-09-09T12:30:09;22.30;99.90
27226;DHT22;14732;51.074;3.788;2022-09-09T12:32:36;22.30;99.90
27226;DHT22;14732;51.074;3.788;2022-09-09T12:37:54;22.60;99.90
27226;DHT22;14732;51.074;3.788;2022-09-09T12:42:51;22.70;99.90
27226;DHT22;14732;51.074;3.788;2022-09-09T12:45:22;22.60;99.90
27226;DHT22;14732;51.074;3.788;2022-09-09T12:48:01;22.60;99.90
27226;DHT22;14732;51.074;3.788;2022-09-09T12:50:36;22.60;99.90
27226;DHT22;14732;51.074;3.788;2022-09-09T12:53:11;22.70;99.90
27226;DHT22;14732;51.074;3.788;2022-09-09T12:55:50;22.70;99.90
27226;DHT22;14732;51.074;3.788;2022-09-09T12:58:17;22.70;99.90
27226;DHT22;14732;51.074;3.788;2022-09-09T13:00:51;22.70;99.90
27226;DHT22;14732;51.074;3.788;2022-09-09T13:03:20;22.60;99.90
27226;DHT22;14732;51.074;3.788;2022-09-09T13:05:49;22.40;99.90
27226;DHT22;14732;51.074;3.788;2022-09-09T13:08:16;22.30;99.90
27226;DHT22;14732;51.074;3.788;2022-09-09T13:11:01;22.30;99.90
27226;DHT22;14732;51.074;3.788;2022-09-09T13:13:35;22.10;99.90
27226;DHT22;14732;51.074;3.788;2022-09-09T13:16:02;22.10;99.90
27226;DHT22;14732;51.074;3.788;2022-09-09T13:18:39;22.10;99.90
27226;DHT22;14732;51.074;3.788;2022-09-09T13:21:05;22.30;99.90
27226;DHT22;14732;51.074;3.788;2022-09-09T13:23:36;22.40;99.90
27226;DHT22;14732;51.074;3.788;2022-09-09T13:26:19;22.60;99.90
27226;DHT22;14732;51.074;3.788;2022-09-09T13:28:47;22.90;99.90
27226;DHT22;14732;51.074;3.788;2022-09-09T13:31:39;23.00;99.90
27226;DHT22;14732;51.074;3.788;2022-09-09T13:34:34;23.30;99.90
27226;DHT22;14732;51.074;3.788;2022-09-09T13:37:20;23.40;99.90
27226;DHT22;14732;51.074;3.788;2022-09-09T13:39:52;23.50;99.90
27226;DHT22;14732;51.074;3.788;2022-09-09T13:42:32;23.70;99.90
27226;DHT22;14732;51.074;3.788;2022-09-09T13:45:00;23.90;99.90
27226;DHT22;14732;51.074;3.788;2022-09-09T13:47:36;24.20;99.90
27226;DHT22;14732;51.074;3.788;2022-09-09T13:50:21;24.40;99.90
27226;DHT22;14732;51.074;3.788;2022-09-09T13:52:48;24.50;99.90
27226;DHT22;14732;51.074;3.788;2022-09-09T13:55:15;24.30;99.90
27226;DHT22;14732;51.074;3.788;2022-09-09T13:57:50;24.10;99.90
27226;DHT22;14732;51.074;3.788;2022-09-09T14:00:16;24.20;99.90
27226;DHT22;14732;51.074;3.788;2022-09-09T14:02:42;24.10;99.90
27226;DHT22;14732;51.074;3.788;2022-09-09T14:05:09;23.90;99.90
27226;DHT22;14732;51.074;3.788;2022-09-09T14:07:36;23.70;99.90
27226;DHT22;14732;51.074;3.788;2022-09-09T14:10:04;23.70;99.90
27226;DHT22;14732;51.074;3.788;2022-09-09T14:12:30;23.80;99.90
27226;DHT22;14732;51.074;3.788;2022-09-09T14:14:55;23.80;99.90
27226;DHT22;14732;51.074;3.788;2022-09-09T14:17:21;23.70;99.90
27226;DHT22;14732;51.074;3.788;2022-09-09T14:19:47;23.60;99.90
27226;DHT22;14732;51.074;3.788;2022-09-09T14:22:14;23.50;99.90
27226;DHT22;14732;51.074;3.788;2022-09-09T14:24:39;23.30;99.90
27226;DHT22;14732;51.074;3.788;2022-09-09T14:27:06;23.20;99.90
27226;DHT22;14732;51.074;3.788;2022-09-09T14:29:31;23.20;99.90
27226;DHT22;14732;51.074;3.788;2022-09-09T14:31:58;23.20;99.90
27226;DHT22;14732;51.074;3.788;2022-09-09T14:34:26;23.00;99.90
27226;DHT22;14732;51.074;3.788;2022-09-09T14:36:51;23.10;99.90
27226;DHT22;14732;51.074;3.788;2022-09-09T14:39:17;22.90;99.90
27226;DHT22;14732;51.074;3.788;2022-09-09T14:41:42;22.90;99.90
27226;DHT22;14732;51.074;3.788;2022-09-09T14:44:08;23.30;99.90
27226;DHT22;14732;51.074;3.788;2022-09-09T14:46:34;23.30;99.90
27226;DHT22;14732;51.074;3.788;2022-09-09T14:49:00;23.50;99.90
27226;DHT22;14732;51.074;3.788;2022-09-09T14:51:26;23.70;99.90
27226;DHT22;14732;51.074;3.788;2022-09-09T14:53:56;23.70;99.90
27226;DHT22;14732;51.074;3.788;2022-09-09T14:56:25;23.60;99.90
27226;DHT22;14732;51.074;3.788;2022-09-09T14:58:54;23.00;99.90
27226;DHT22;14732;51.074;3.788;2022-09-09T15:01:20;22.50;99.90
27226;DHT22;14732;51.074;3.788;2022-09-09T15:03:55;22.30;99.90
27226;DHT22;14732;51.074;3.788;2022-09-09T15:06:23;22.20;99.90
27226;DHT22;14732;51.074;3.788;2022-09-09T15:08:51;22.20;99.90
27226;DHT22;14732;51.074;3.788;2022-09-09T15:11:17;22.10;99.90
27226;DHT22;14732;51.074;3.788;2022-09-09T15:13:43;22.10;99.90
27226;DHT22;14732;51.074;3.788;2022-09-09T15:16:17;22.00;99.90
27226;DHT22;14732;51.074;3.788;2022-09-09T15:18:44;21.90;99.90
27226;DHT22;14732;51.074;3.788;2022-09-09T15:21:22;21.90;99.90
27226;DHT22;14732;51.074;3.788;2022-09-09T15:23:48;22.10;99.90
27226;DHT22;14732;51.074;3.788;2022-09-09T15:26:14;22.20;99.90
27226;DHT22;14732;51.074;3.788;2022-09-09T15:28:41;22.30;99.90
27226;DHT22;14732;51.074;3.788;2022-09-09T15:31:17;22.20;99.90
27226;DHT22;14732;51.074;3.788;2022-09-09T15:33:53;22.30;99.90
27226;DHT22;14732;51.074;3.788;2022-09-09T15:36:24;21.90;99.90
27226;DHT22;14732;51.074;3.788;2022-09-09T15:38:51;21.70;99.90
27226;DHT22;14732;51.074;3.788;2022-09-09T15:41:18;21.70;99.90
27226;DHT22;14732;51.074;3.788;2022-09-09T15:43:52;21.50;99.90
27226;DHT22;14732;51.074;3.788;2022-09-09T15:46:21;21.40;99.90
27226;DHT22;14732;51.074;3.788;2022-09-09T15:48:51;21.30;99.90
27226;DHT22;14732;51.074;3.788;2022-09-09T15:51:17;21.30;99.90
27226;DHT22;14732;51.074;3.788;2022-09-09T15:53:44;21.20;99.90
27226;DHT22;14732;51.074;3.788;2022-09-09T15:56:10;21.20;99.90
27226;DHT22;14732;51.074;3.788;2022-09-09T15:58:36;21.30;99.90
27226;DHT22;14732;51.074;3.788;2022-09-09T16:03:40;21.20;99.90
27226;DHT22;14732;51.074;3.788;2022-09-09T16:06:18;21.10;99.90
27226;DHT22;14732;51.074;3.788;2022-09-09T16:08:45;21.20;99.90
27226;DHT22;14732;51.074;3.788;2022-09-09T16:11:24;21.60;99.90
27226;DHT22;14732;51.074;3.788;2022-09-09T16:13:52;21.90;99.90
27226;DHT22;14732;51.074;3.788;2022-09-09T16:16:19;22.00;99.90
27226;DHT22;14732;51.074;3.788;2022-09-09T16:18:48;22.20;99.90
27226;DHT22;14732;51.074;3.788;2022-09-09T16:23:44;22.00;99.90
27226;DHT22;14732;51.074;3.788;2022-09-09T16:26:15;22.10;99.90
27226;DHT22;14732;51.074;3.788;2022-09-09T16:28:41;22.30;99.90
27226;DHT22;14732;51.074;3.788;2022-09-09T16:31:14;22.50;99.90
27226;DHT22;14732;51.074;3.788;2022-09-09T16:33:40;22.70;99.90
27226;DHT22;14732;51.074;3.788;2022-09-09T16:36:11;22.70;99.90
27226;DHT22;14732;51.074;3.788;2022-09-09T16:38:38;22.80;99.90
27226;DHT22;14732;51.074;3.788;2022-09-09T16:41:05;22.40;99.90
27226;DHT22;14732;51.074;3.788;2022-09-09T16:43:34;22.50;99.90
27226;DHT22;14732;51.074;3.788;2022-09-09T16:46:15;22.40;99.90
27226;DHT22;14732;51.074;3.788;2022-09-09T16:48:42;22.20;99.90
27226;DHT22;14732;51.074;3.788;2022-09-09T16:51:15;22.20;99.90
27226;DHT22;14732;51.074;3.788;2022-09-09T16:53:42;22.30;99.90
27226;DHT22;14732;51.074;3.788;2022-09-09T16:56:10;22.20;99.90
27226;DHT22;14732;51.074;3.788;2022-09-09T16:58:36;22.00;99.90
27226;DHT22;14732;51.074;3.788;2022-09-09T17:01:03;22.00;99.90
27226;DHT22;14732;51.074;3.788;2022-09-09T17:03:30;21.70;99.90
27226;DHT22;14732;51.074;3.788;2022-09-09T17:05:57;21.80;99.90
27226;DHT22;14732;51.074;3.788;2022-09-09T17:08:24;21.70;99.90
27226;DHT22;14732;51.074;3.788;2022-09-09T17:10:49;21.70;99.90
27226;DHT22;14732;51.074;3.788;2022-09-09T17:13:15;21.80;99.90
27226;DHT22;14732;51.074;3.788;2022-09-09T17:15:45;21.80;99.90
27226;DHT22;14732;51.074;3.788;2022-09-09T17:18:12;21.90;99.90
27226;DHT22;14732;51.074;3.788;2022-09-09T17:20:41;22.00;99.90
27226;DHT22;14732;51.074;3.788;2022-09-09T17:23:11;22.00;99.90
27226;DHT22;14732;51.074;3.788;2022-09-09T17:25:41;21.80;99.90
27226;DHT22;14732;51.074;3.788;2022-09-09T17:28:08;21.60;99.90
27226;DHT22;14732;51.074;3.788;2022-09-09T17:30:34;21.40;99.90
27226;DHT22;14732;51.074;3.788;2022-09-09T17:33:02;21.10;99.90
27226;DHT22;14732;51.074;3.788;2022-09-09T17:35:29;20.90;99.90
27226;DHT22;14732;51.074;3.788;2022-09-09T17:37:55;20.90;99.90
27226;DHT22;14732;51.074;3.788;2022-09-09T17:40:22;20.90;99.90
27226;DHT22;14732;51.074;3.788;2022-09-09T17:42:47;20.80;99.90
27226;DHT22;14732;51.074;3.788;2022-09-09T17:45:14;20.90;99.90
27226;DHT22;14732;51.074;3.788;2022-09-09T17:47:40;20.90;99.90
27226;DHT22;14732;51.074;3.788;2022-09-09T17:50:09;20.90;99.90
27226;DHT22;14732;51.074;3.788;2022-09-09T17:52:36;20.80;99.90
27226;DHT22;14732;51.074;3.788;2022-09-09T17:55:02;20.80;99.90
27226;DHT22;14732;51.074;3.788;2022-09-09T17:57:29;20.80;99.90
27226;DHT22;14732;51.074;3.788;2022-09-09T17:59:55;20.70;99.90
27226;DHT22;14732;51.074;3.788;2022-09-09T18:02:20;20.70;99.90